createdAt,value
2018-05-21T00:00:56.643Z,16.85
2018-05-21T00:03:24.267Z,16.92
2018-05-21T00:05:51.863Z,16.81
2018-05-21T00:08:19.488Z,16.82
2018-05-21T00:10:47.092Z,16.78
2018-05-21T00:13:14.746Z,16.77
2018-05-21T00:15:42.369Z,16.76
2018-05-21T00:18:09.977Z,16.73
2018-05-21T00:20:37.613Z,16.75
2018-05-21T00:23:05.203Z,16.73
2018-05-21T00:25:32.929Z,16.70
2018-05-21T00:28:00.524Z,16.65
2018-05-21T00:30:28.330Z,16.68
2018-05-21T00:32:55.930Z,16.77
2018-05-21T00:35:23.515Z,16.63
2018-05-21T00:37:51.149Z,16.55
2018-05-21T00:40:18.742Z,16.53
2018-05-21T00:42:46.486Z,16.46
2018-05-21T00:45:14.103Z,16.49
2018-05-21T00:47:41.884Z,16.53
2018-05-21T00:50:09.483Z,16.46
2018-05-21T00:52:37.161Z,16.48
2018-05-21T00:55:16.421Z,16.44
2018-05-21T00:57:44.119Z,16.35
2018-05-21T01:00:11.742Z,16.30
2018-05-21T01:02:39.342Z,16.25
2018-05-21T01:05:06.993Z,16.22
2018-05-21T01:07:34.597Z,16.11
2018-05-21T01:10:02.451Z,16.09
2018-05-21T01:12:30.122Z,16.03
2018-05-21T01:14:57.746Z,16.01
2018-05-21T01:17:25.396Z,16.06
2018-05-21T01:19:53.709Z,15.99
2018-05-21T01:22:21.368Z,15.95
2018-05-21T01:24:48.992Z,15.96
2018-05-21T01:27:16.589Z,15.96
2018-05-21T01:29:44.212Z,15.94
2018-05-21T01:32:11.881Z,15.95
2018-05-21T01:34:39.823Z,15.87
2018-05-21T01:37:07.440Z,15.90
2018-05-21T01:39:35.386Z,15.81
2018-05-21T01:42:02.986Z,15.78
2018-05-21T01:44:30.592Z,15.87
2018-05-21T01:46:58.218Z,15.74
2018-05-21T01:49:25.930Z,15.74
2018-05-21T01:51:53.557Z,15.68
2018-05-21T01:54:21.145Z,15.60
2018-05-21T01:56:48.800Z,15.63
2018-05-21T01:59:16.403Z,15.65
2018-05-21T02:01:43.993Z,15.63
2018-05-21T02:04:11.623Z,15.59
2018-05-21T02:06:39.345Z,15.56
2018-05-21T02:09:07.028Z,15.52
2018-05-21T02:11:35.073Z,15.52
2018-05-21T02:14:02.717Z,15.44
2018-05-21T02:16:30.332Z,15.35
2018-05-21T02:18:57.980Z,15.40
2018-05-21T02:21:25.615Z,15.46
2018-05-21T02:23:53.222Z,15.44
2018-05-21T02:26:20.877Z,15.34
2018-05-21T02:28:48.480Z,15.31
2018-05-21T02:31:16.344Z,15.30
2018-05-21T02:33:43.950Z,15.27
2018-05-21T02:36:11.570Z,15.29
2018-05-21T02:38:39.687Z,15.27
2018-05-21T02:41:07.289Z,15.29
2018-05-21T02:43:34.931Z,15.22
2018-05-21T02:46:02.553Z,15.18
2018-05-21T02:48:30.945Z,15.14
2018-05-21T02:50:58.592Z,15.11
2018-05-21T02:53:26.283Z,15.18
2018-05-21T02:55:53.937Z,15.11
2018-05-21T02:58:21.590Z,15.16
2018-05-21T03:00:49.802Z,15.21
2018-05-21T03:03:17.439Z,15.24
2018-05-21T03:05:45.320Z,15.23
2018-05-21T03:08:12.944Z,15.24
2018-05-21T03:10:40.562Z,15.27
2018-05-21T03:13:08.191Z,15.28
2018-05-21T03:15:35.799Z,15.21
2018-05-21T03:18:03.449Z,15.17
2018-05-21T03:20:31.060Z,15.14
2018-05-21T03:22:58.694Z,15.19
2018-05-21T03:25:26.308Z,15.19
2018-05-21T03:27:53.904Z,15.14
2018-05-21T03:30:21.535Z,15.15
2018-05-21T03:32:49.222Z,15.15
2018-05-21T03:35:16.853Z,15.13
2018-05-21T03:37:44.451Z,15.07
2018-05-21T03:40:12.388Z,15.06
2018-05-21T03:42:39.975Z,15.02
2018-05-21T03:45:07.603Z,15.04
2018-05-21T03:47:35.226Z,15.03
2018-05-21T03:50:02.834Z,14.93
2018-05-21T03:52:30.463Z,15.00
2018-05-21T03:54:58.063Z,15.01
2018-05-21T03:57:25.821Z,14.97
2018-05-21T04:00:05.115Z,14.96
2018-05-21T04:02:44.496Z,14.96
2018-05-21T04:05:12.098Z,14.96
2018-05-21T04:07:39.809Z,14.98
2018-05-21T04:10:09.118Z,15.02
2018-05-21T04:12:36.723Z,15.09
2018-05-21T04:15:04.332Z,15.11
2018-05-21T04:17:32.071Z,15.02
2018-05-21T04:19:59.966Z,15.07
2018-05-21T04:22:27.559Z,15.01
2018-05-21T04:24:55.155Z,15.05
2018-05-21T04:27:23.055Z,15.08
2018-05-21T04:29:50.665Z,15.05
2018-05-21T04:32:18.618Z,15.14
2018-05-21T04:34:46.232Z,15.18
2018-05-21T04:37:13.834Z,15.28
2018-05-21T04:39:41.476Z,15.27
2018-05-21T04:42:09.673Z,15.29
2018-05-21T04:44:37.286Z,15.35
2018-05-21T04:47:04.891Z,15.38
2018-05-21T04:49:32.745Z,15.46
2018-05-21T04:52:00.339Z,15.58
2018-05-21T04:54:27.945Z,15.65
2018-05-21T04:56:55.592Z,15.71
2018-05-21T04:59:23.227Z,15.72
2018-05-21T05:01:50.843Z,15.77
2018-05-21T05:04:18.431Z,15.83
2018-05-21T05:06:46.447Z,15.93
2018-05-21T05:09:14.047Z,16.03
2018-05-21T05:11:41.654Z,16.07
2018-05-21T05:14:09.306Z,16.17
2018-05-21T05:16:36.946Z,16.25
2018-05-21T05:19:04.595Z,16.31
2018-05-21T05:21:32.197Z,16.31
2018-05-21T05:24:00.267Z,16.35
2018-05-21T05:26:28.138Z,16.44
2018-05-21T05:28:55.764Z,16.52
2018-05-21T05:31:23.604Z,16.52
2018-05-21T05:33:51.212Z,16.57
2018-05-21T05:36:18.887Z,16.66
2018-05-21T05:38:46.486Z,16.73
2018-05-21T05:41:14.367Z,16.76
2018-05-21T05:43:41.963Z,16.88
2018-05-21T05:46:09.581Z,16.95
2018-05-21T05:48:37.212Z,17.01
2018-05-21T05:51:04.805Z,17.10
2018-05-21T05:53:32.462Z,17.10
2018-05-21T05:56:00.082Z,17.19
2018-05-21T05:58:27.707Z,17.24
2018-05-21T06:00:55.302Z,17.42
2018-05-21T06:03:22.900Z,17.40
2018-05-21T06:05:50.515Z,17.39
2018-05-21T06:08:18.120Z,17.45
2018-05-21T06:10:56.291Z,17.56
2018-05-21T06:13:23.999Z,17.67
2018-05-21T06:15:51.956Z,17.75
2018-05-21T06:18:19.570Z,17.81
2018-05-21T06:20:47.162Z,17.87
2018-05-21T06:23:14.788Z,17.86
2018-05-21T06:25:42.385Z,17.96
2018-05-21T06:28:10.031Z,18.08
2018-05-21T06:30:37.626Z,18.13
2018-05-21T06:33:05.371Z,18.13
2018-05-21T06:35:32.968Z,18.12
2018-05-21T06:38:00.559Z,18.29
2018-05-21T06:40:28.190Z,18.39
2018-05-21T06:42:55.787Z,18.48
2018-05-21T06:45:23.405Z,18.63
2018-05-21T06:47:51.121Z,18.67
2018-05-21T06:50:18.874Z,18.78
2018-05-21T06:52:46.467Z,18.84
2018-05-21T06:55:14.067Z,18.97
2018-05-21T06:57:41.717Z,18.99
2018-05-21T07:00:09.381Z,19.12
2018-05-21T07:02:36.997Z,19.17
2018-05-21T07:05:04.595Z,19.32
2018-05-21T07:07:32.459Z,19.38
2018-05-21T07:10:00.060Z,19.48
2018-05-21T07:12:27.659Z,19.56
2018-05-21T07:14:55.283Z,19.63
2018-05-21T07:17:22.877Z,19.64
2018-05-21T07:19:50.513Z,19.83
2018-05-21T07:22:18.129Z,19.90
2018-05-21T07:24:45.854Z,19.96
2018-05-21T07:27:13.444Z,20.03
2018-05-21T07:29:41.030Z,20.05
2018-05-21T07:32:08.667Z,20.10
2018-05-21T07:34:36.344Z,20.24
2018-05-21T07:37:03.955Z,20.26
2018-05-21T07:39:31.560Z,20.33
2018-05-21T07:41:59.334Z,20.33
2018-05-21T07:44:26.984Z,20.36
2018-05-21T07:46:54.586Z,20.40
2018-05-21T07:49:22.262Z,20.56
2018-05-21T07:51:49.913Z,20.61
2018-05-21T07:54:17.766Z,20.70
2018-05-21T07:56:45.425Z,20.56
2018-05-21T07:59:13.023Z,20.55
2018-05-21T08:01:40.849Z,20.66
2018-05-21T08:04:08.446Z,20.80
2018-05-21T08:06:36.107Z,20.66
2018-05-21T08:09:03.746Z,20.76
2018-05-21T08:11:31.342Z,20.63
2018-05-21T08:13:58.967Z,20.73
2018-05-21T08:16:26.562Z,20.81
2018-05-21T08:18:54.182Z,20.82
2018-05-21T08:21:21.778Z,20.93
2018-05-21T08:23:49.746Z,21.08
2018-05-21T08:26:17.343Z,21.07
2018-05-21T08:28:44.944Z,21.24
2018-05-21T08:31:12.554Z,21.24
2018-05-21T08:33:40.196Z,21.42
2018-05-21T08:36:07.816Z,21.47
2018-05-21T08:38:35.440Z,21.64
2018-05-21T08:41:03.115Z,21.69
2018-05-21T08:43:31.503Z,21.71
2018-05-21T08:45:59.305Z,21.77
2018-05-21T08:48:26.979Z,21.88
2018-05-21T08:50:54.561Z,21.89
2018-05-21T08:53:22.170Z,21.89
2018-05-21T08:55:49.812Z,22.03
2018-05-21T08:58:17.404Z,21.98
2018-05-21T09:00:44.993Z,22.03
2018-05-21T09:03:12.623Z,22.13
2018-05-21T09:05:40.214Z,22.12
2018-05-21T09:08:07.842Z,22.16
2018-05-21T09:10:35.435Z,22.18
2018-05-21T09:13:03.462Z,22.25
2018-05-21T09:15:31.079Z,22.32
2018-05-21T09:17:58.678Z,22.41
2018-05-21T09:20:26.313Z,22.39
2018-05-21T09:22:53.925Z,22.45
2018-05-21T09:25:21.643Z,22.43
2018-05-21T09:27:49.265Z,22.56
2018-05-21T09:30:16.887Z,22.66
2018-05-21T09:32:44.498Z,22.74
2018-05-21T09:35:12.117Z,22.77
2018-05-21T09:37:39.714Z,22.89
2018-05-21T09:40:07.311Z,23.01
2018-05-21T09:42:34.943Z,23.13
2018-05-21T09:45:02.538Z,23.05
2018-05-21T09:47:30.216Z,23.06
2018-05-21T09:49:57.837Z,23.15
2018-05-21T09:52:25.454Z,23.26
2018-05-21T09:54:53.065Z,23.19
2018-05-21T09:57:20.695Z,23.27
2018-05-21T09:59:48.287Z,23.17
2018-05-21T10:02:15.910Z,23.14
2018-05-21T10:04:43.497Z,23.30
2018-05-21T10:07:11.305Z,23.35
2018-05-21T10:09:38.894Z,23.18
2018-05-21T10:12:06.559Z,23.38
2018-05-21T10:14:34.152Z,23.40
2018-05-21T10:17:01.776Z,23.46
2018-05-21T10:19:29.427Z,23.70
2018-05-21T10:21:57.047Z,23.64
2018-05-21T10:24:24.691Z,23.58
2018-05-21T10:26:52.306Z,23.53
2018-05-21T10:29:19.922Z,23.65
2018-05-21T10:31:47.515Z,23.66
2018-05-21T10:34:15.133Z,23.63
2018-05-21T10:36:42.722Z,23.74
2018-05-21T10:39:10.341Z,23.90
2018-05-21T10:41:37.941Z,23.93
2018-05-21T10:44:05.564Z,24.04
2018-05-21T10:46:33.185Z,24.00
2018-05-21T10:49:00.855Z,23.87
2018-05-21T10:51:28.533Z,24.00
2018-05-21T10:53:56.154Z,23.90
2018-05-21T10:56:23.753Z,24.06
2018-05-21T10:58:51.754Z,24.00
2018-05-21T11:01:19.349Z,23.98
2018-05-21T11:03:46.959Z,24.04
2018-05-21T11:06:14.613Z,24.17
2018-05-21T11:08:42.190Z,24.25
2018-05-21T11:11:09.802Z,24.20
2018-05-21T11:13:37.402Z,24.26
2018-05-21T11:16:05.237Z,24.27
2018-05-21T11:18:32.835Z,24.38
2018-05-21T11:21:00.442Z,24.56
2018-05-21T11:23:28.070Z,24.63
2018-05-21T11:25:55.692Z,24.74
2018-05-21T11:28:23.314Z,25.00
2018-05-21T11:30:50.924Z,25.06
2018-05-21T11:33:18.539Z,25.15
2018-05-21T11:35:46.188Z,25.25
2018-05-21T11:38:13.841Z,25.08
2018-05-21T11:40:41.448Z,25.24
2018-05-21T11:43:09.068Z,25.48
2018-05-21T11:45:36.704Z,25.69
2018-05-21T11:48:04.330Z,25.74
2018-05-21T11:50:32.057Z,25.68
2018-05-21T11:52:59.652Z,25.78
2018-05-21T11:55:27.286Z,25.67
2018-05-21T11:57:54.878Z,26.08
2018-05-21T12:00:22.528Z,26.25
2018-05-21T12:02:50.138Z,26.22
2018-05-21T12:05:17.754Z,26.35
2018-05-21T12:07:45.504Z,26.63
2018-05-21T12:10:13.012Z,26.51
2018-05-21T12:12:40.684Z,25.78
2018-05-21T12:15:08.334Z,25.35
2018-05-21T12:17:35.934Z,25.23
2018-05-21T12:20:03.562Z,25.77
2018-05-21T12:22:31.171Z,26.06
2018-05-21T12:24:58.827Z,26.13
2018-05-21T12:27:26.418Z,26.15
2018-05-21T12:29:54.019Z,26.33
2018-05-21T12:32:21.651Z,26.47
2018-05-21T12:34:49.257Z,26.53
2018-05-21T12:37:16.887Z,26.65
2018-05-21T12:39:44.486Z,26.67
2018-05-21T12:42:12.218Z,26.54
2018-05-21T12:44:39.809Z,26.48
2018-05-21T12:47:07.408Z,26.31
2018-05-21T12:49:35.030Z,25.88
2018-05-21T12:52:02.661Z,25.77
2018-05-21T12:54:31.329Z,25.61
2018-05-21T12:56:58.933Z,25.35
2018-05-21T12:59:26.533Z,25.25
2018-05-21T13:01:54.213Z,25.36
2018-05-21T13:04:21.838Z,25.67
2018-05-21T13:06:49.466Z,26.92
2018-05-21T13:09:17.156Z,28.20
2018-05-21T13:11:44.791Z,29.19
2018-05-21T13:14:12.387Z,29.09
2018-05-21T13:16:40.007Z,28.24
2018-05-21T13:19:07.598Z,28.08
2018-05-21T13:21:35.238Z,27.70
2018-05-21T13:24:02.865Z,27.13
2018-05-21T13:26:30.468Z,26.87
2018-05-21T13:28:58.094Z,26.88
2018-05-21T13:31:25.711Z,27.93
2018-05-21T13:33:53.334Z,28.06
2018-05-21T13:36:20.928Z,27.36
2018-05-21T13:38:48.735Z,27.02
2018-05-21T13:41:16.338Z,26.59
2018-05-21T13:43:43.936Z,26.62
2018-05-21T13:46:11.559Z,26.89
2018-05-21T13:48:39.165Z,26.79
2018-05-21T13:51:06.795Z,26.60
2018-05-21T13:53:34.399Z,26.60
2018-05-21T13:56:02.074Z,27.10
2018-05-21T13:58:29.686Z,27.36
2018-05-21T14:00:57.275Z,27.25
2018-05-21T14:03:24.929Z,27.38
2018-05-21T14:05:52.550Z,27.48
2018-05-21T14:08:20.178Z,27.30
2018-05-21T14:10:47.840Z,27.21
2018-05-21T14:13:15.469Z,27.38
2018-05-21T14:15:43.066Z,27.49
2018-05-21T14:18:10.694Z,27.77
2018-05-21T14:20:38.286Z,27.92
2018-05-21T14:23:05.899Z,27.78
2018-05-21T14:25:33.490Z,27.63
2018-05-21T14:28:01.103Z,27.39
2018-05-21T14:30:28.692Z,27.08
2018-05-21T14:32:56.502Z,26.98
2018-05-21T14:35:24.090Z,26.96
2018-05-21T14:37:51.702Z,26.85
2018-05-21T14:40:19.320Z,26.71
2018-05-21T14:42:46.913Z,26.57
2018-05-21T14:45:14.528Z,26.55
2018-05-21T14:47:42.174Z,26.73
2018-05-21T14:50:09.829Z,26.83
2018-05-21T14:52:37.455Z,26.82
2018-05-21T14:55:05.124Z,26.72
2018-05-21T14:57:32.775Z,26.74
2018-05-21T15:00:00.379Z,26.66
2018-05-21T15:02:28.000Z,26.75
2018-05-21T15:04:55.590Z,26.78
2018-05-21T15:07:23.222Z,26.92
2018-05-21T15:09:50.817Z,26.89
2018-05-21T15:12:18.454Z,26.74
2018-05-21T15:14:46.141Z,26.75
2018-05-21T15:17:13.756Z,26.62
2018-05-21T15:19:41.723Z,26.54
2018-05-21T15:22:09.422Z,26.47
2018-05-21T15:24:36.976Z,26.29
2018-05-21T15:27:04.572Z,26.26
2018-05-21T15:29:32.196Z,26.26
2018-05-21T15:31:59.794Z,26.16
2018-05-21T15:34:27.427Z,26.08
2018-05-21T15:36:55.034Z,26.06
2018-05-21T15:39:22.960Z,26.05
2018-05-21T15:41:50.551Z,26.22
2018-05-21T15:44:18.153Z,26.24
2018-05-21T15:46:45.850Z,26.13
2018-05-21T15:49:13.516Z,26.23
2018-05-21T15:51:41.382Z,26.26
2018-05-21T15:54:08.975Z,26.08
2018-05-21T15:56:36.584Z,26.03
2018-05-21T15:59:04.261Z,25.82
2018-05-21T16:01:31.851Z,25.75
2018-05-21T16:03:59.470Z,25.80
2018-05-21T16:06:27.074Z,25.64
2018-05-21T16:08:55.002Z,25.39
2018-05-21T16:20:30.451Z,25.84
2018-05-21T16:22:58.066Z,26.01
2018-05-21T16:25:25.682Z,25.94
2018-05-21T16:27:53.303Z,26.04
2018-05-21T16:30:20.920Z,26.10
2018-05-21T16:32:48.555Z,26.18
2018-05-21T16:35:16.157Z,26.07
2018-05-21T16:37:43.971Z,26.09
2018-05-21T16:40:11.577Z,25.79
2018-05-21T16:42:39.386Z,25.66
2018-05-21T16:45:07.010Z,25.41
2018-05-21T16:47:34.624Z,24.76
2018-05-21T16:50:02.290Z,24.20
2018-05-21T16:52:29.971Z,22.69
2018-05-21T16:54:57.632Z,21.45
2018-05-21T16:57:25.240Z,21.21
2018-05-21T16:59:52.861Z,21.20
2018-05-21T17:02:20.491Z,20.31
2018-05-21T17:04:48.090Z,19.81
2018-05-21T17:07:15.797Z,19.68
2018-05-21T17:09:43.406Z,19.36
2018-05-21T17:12:11.142Z,19.38
2018-05-21T17:14:38.748Z,19.37
2018-05-21T17:17:06.431Z,19.22
2018-05-21T17:19:34.054Z,19.12
2018-05-21T17:22:01.658Z,19.02
2018-05-21T17:24:38.408Z,18.86
2018-05-21T17:27:06.871Z,18.79
2018-05-21T17:29:34.500Z,18.62
2018-05-21T17:32:02.091Z,18.59
2018-05-21T17:34:29.680Z,18.44
2018-05-21T17:36:57.315Z,18.36
2018-05-21T17:39:24.945Z,18.40
2018-05-21T17:41:52.566Z,18.19
2018-05-21T17:44:20.155Z,18.17
2018-05-21T17:46:47.750Z,18.21
2018-05-21T17:49:15.384Z,18.21
2018-05-21T17:51:42.998Z,18.11
2018-05-21T17:54:10.748Z,18.22
2018-05-21T17:56:38.380Z,18.11
2018-05-21T17:59:06.379Z,18.26
2018-05-21T18:01:34.039Z,18.37
2018-05-21T18:04:01.668Z,18.53
2018-05-21T18:06:29.344Z,18.57
2018-05-21T18:08:56.960Z,18.60
2018-05-21T18:11:24.574Z,18.52
2018-05-21T18:13:52.378Z,18.36
2018-05-21T18:16:20.020Z,18.39
2018-05-21T18:18:47.648Z,18.28
2018-05-21T18:21:15.281Z,18.10
2018-05-21T18:23:42.969Z,18.09
2018-05-21T18:26:10.594Z,18.43
2018-05-21T18:28:38.197Z,18.73
2018-05-21T18:31:05.851Z,18.70
2018-05-21T18:33:33.439Z,18.60
2018-05-21T18:36:01.146Z,18.56
2018-05-21T18:38:28.682Z,18.48
2018-05-21T18:40:56.512Z,18.42
2018-05-21T18:43:24.114Z,18.50
2018-05-21T18:45:51.757Z,18.58
2018-05-21T18:48:19.412Z,18.57
2018-05-21T18:50:46.997Z,18.53
2018-05-21T18:53:14.623Z,18.48
2018-05-21T18:55:42.227Z,18.41
2018-05-21T18:58:10.171Z,18.34
2018-05-21T19:00:37.788Z,18.17
2018-05-21T19:03:05.450Z,18.13
2018-05-21T19:05:33.079Z,18.11
2018-05-21T19:08:00.698Z,18.15
2018-05-21T19:10:28.350Z,18.02
2018-05-21T19:12:56.142Z,17.96
2018-05-21T19:15:23.942Z,17.92
2018-05-21T19:17:51.542Z,17.83
2018-05-21T19:20:19.242Z,17.81
2018-05-21T19:22:46.899Z,17.76
2018-05-21T19:25:14.495Z,17.70
2018-05-21T19:27:42.127Z,17.74
2018-05-21T19:30:09.753Z,17.68
2018-05-21T19:32:37.523Z,17.73
2018-05-21T19:35:05.144Z,17.71
2018-05-21T19:37:32.767Z,17.71
2018-05-21T19:40:00.389Z,17.78
2018-05-21T19:42:27.994Z,17.71
2018-05-21T19:44:55.634Z,17.68
2018-05-21T19:47:23.262Z,17.64
2018-05-21T19:49:51.072Z,17.61
2018-05-21T19:52:18.675Z,17.62
2018-05-21T19:54:46.296Z,17.65
2018-05-21T19:57:13.935Z,17.63
2018-05-21T19:59:41.559Z,17.61
2018-05-21T20:02:09.227Z,17.57
2018-05-21T20:04:36.838Z,17.58
2018-05-21T20:07:04.445Z,17.60
2018-05-21T20:09:32.076Z,17.56
2018-05-21T20:11:59.695Z,17.41
2018-05-21T20:14:27.331Z,17.50
2018-05-21T20:16:54.946Z,17.42
2018-05-21T20:19:22.774Z,17.49
2018-05-21T20:21:50.345Z,17.56
2018-05-21T20:24:17.947Z,17.50
2018-05-21T20:26:45.566Z,17.49
2018-05-21T20:29:13.165Z,17.45
2018-05-21T20:31:40.854Z,17.47
2018-05-21T20:34:08.445Z,17.42
2018-05-21T20:36:39.343Z,17.34
2018-05-21T20:39:07.772Z,17.36
2018-05-21T20:41:35.574Z,17.32
2018-05-21T20:44:03.178Z,17.30
2018-05-21T20:46:30.786Z,17.33
2018-05-21T20:48:58.397Z,17.28
2018-05-21T20:51:26.013Z,17.18
2018-05-21T20:53:53.651Z,17.20
2018-05-21T20:56:21.250Z,17.13
2018-05-21T20:58:49.186Z,17.09
2018-05-21T21:01:16.839Z,17.08
2018-05-21T21:03:44.432Z,17.14
2018-05-21T21:06:12.059Z,17.15
2018-05-21T21:08:39.672Z,17.12
2018-05-21T21:11:07.329Z,17.03
2018-05-21T21:13:34.923Z,17.01
2018-05-21T21:16:02.923Z,16.91
2018-05-21T21:18:30.519Z,16.93
2018-05-21T21:20:58.127Z,16.87
2018-05-21T21:23:25.778Z,16.91
2018-05-21T21:25:53.358Z,16.92
2018-05-21T21:28:20.993Z,16.91
2018-05-21T21:30:48.597Z,16.91
2018-05-21T21:33:16.249Z,16.80
2018-05-21T21:35:43.852Z,16.77
2018-05-21T21:38:11.453Z,16.77
2018-05-21T21:40:39.086Z,16.82
2018-05-21T21:43:06.699Z,16.82
2018-05-21T21:45:34.330Z,16.78
2018-05-21T21:48:01.959Z,16.66
2018-05-21T21:50:29.749Z,16.76
2018-05-21T21:52:57.358Z,16.80
2018-05-21T21:55:24.965Z,16.83
2018-05-21T21:57:52.595Z,16.74
2018-05-21T22:00:20.213Z,16.74
2018-05-21T22:02:47.830Z,16.75
2018-05-21T22:05:15.443Z,16.72
2018-05-21T22:07:43.212Z,16.65
2018-05-21T22:10:10.804Z,16.61
2018-05-21T22:12:38.407Z,16.60
2018-05-21T22:15:06.034Z,16.60
2018-05-21T22:17:33.648Z,16.60
2018-05-21T22:20:01.285Z,16.57
2018-05-21T22:22:28.905Z,16.49
2018-05-21T22:24:56.750Z,16.45
2018-05-21T22:27:24.352Z,16.43
2018-05-21T22:29:51.990Z,16.45
2018-05-21T22:32:19.630Z,16.44
2018-05-21T22:34:47.232Z,16.37
2018-05-21T22:37:14.933Z,16.36
2018-05-21T22:39:42.486Z,16.34
2018-05-21T22:42:10.274Z,16.29
2018-05-21T22:44:42.675Z,16.29
2018-05-21T22:47:10.308Z,16.27
2018-05-21T22:49:37.947Z,16.26
2018-05-21T22:52:05.546Z,16.24
2018-05-21T22:54:36.894Z,16.21
2018-05-21T22:57:04.494Z,16.19
2018-05-21T22:59:32.124Z,16.16
2018-05-21T23:01:59.726Z,16.07
2018-05-21T23:04:27.545Z,16.00
2018-05-21T23:06:55.158Z,15.99
2018-05-21T23:09:22.783Z,15.99
2018-05-21T23:11:50.413Z,15.95
2018-05-21T23:14:18.092Z,15.89
2018-05-21T23:16:45.709Z,15.88
2018-05-21T23:19:13.336Z,15.88
2018-05-21T23:21:40.978Z,15.84
2018-05-21T23:24:08.574Z,15.89
2018-05-21T23:26:36.201Z,15.92
2018-05-21T23:29:03.822Z,15.91
2018-05-21T23:31:31.418Z,15.92
2018-05-21T23:33:59.039Z,15.86
2018-05-21T23:36:26.636Z,15.85
2018-05-21T23:38:54.512Z,15.80
2018-05-21T23:41:22.760Z,15.76
2018-05-21T23:43:50.350Z,15.74
2018-05-21T23:46:17.982Z,15.71
2018-05-21T23:48:45.589Z,15.70
2018-05-21T23:51:13.222Z,15.71
2018-05-21T23:53:40.813Z,15.66
2018-05-21T23:56:08.465Z,15.64
2018-05-21T23:58:36.063Z,15.62
